sensor_id;sensor_type;location;lat;lon;timestamp;P1;durP1;ratioP1;P2;durP2;ratioP2
17345;SDS011;8790;53.590;10.002;2023-10-13T00:02:23;7.43;;;2.50;;
17345;SDS011;8790;53.590;10.002;2023-10-13T00:04:54;5.83;;;2.50;;
17345;SDS011;8790;53.590;10.002;2023-10-13T00:07:26;3.97;;;2.80;;
17345;SDS011;8790;53.590;10.002;2023-10-13T00:09:58;7.83;;;2.43;;
17345;SDS011;8790;53.590;10.002;2023-10-13T00:12:31;7.37;;;2.57;;
17345;SDS011;8790;53.590;10.002;2023-10-13T00:15:03;7.87;;;3.00;;
17345;SDS011;8790;53.590;10.002;2023-10-13T00:17:37;6.63;;;2.60;;
17345;SDS011;8790;53.590;10.002;2023-10-13T00:20:09;6.30;;;2.87;;
17345;SDS011;8790;53.590;10.002;2023-10-13T00:23:03;5.63;;;3.10;;
17345;SDS011;8790;53.590;10.002;2023-10-13T00:25:36;7.63;;;3.50;;
17345;SDS011;8790;53.590;10.002;2023-10-13T00:28:14;5.90;;;3.50;;
17345;SDS011;8790;53.590;10.002;2023-10-13T00:30:54;9.20;;;3.77;;
17345;SDS011;8790;53.590;10.002;2023-10-13T00:33:31;6.93;;;3.10;;
17345;SDS011;8790;53.590;10.002;2023-10-13T00:36:03;8.00;;;3.87;;
17345;SDS011;8790;53.590;10.002;2023-10-13T00:38:35;9.87;;;3.93;;
17345;SDS011;8790;53.590;10.002;2023-10-13T00:41:07;7.80;;;3.57;;
17345;SDS011;8790;53.590;10.002;2023-10-13T00:43:46;8.43;;;3.97;;
17345;SDS011;8790;53.590;10.002;2023-10-13T00:46:34;10.03;;;3.83;;
17345;SDS011;8790;53.590;10.002;2023-10-13T00:49:06;12.53;;;5.50;;
17345;SDS011;8790;53.590;10.002;2023-10-13T00:51:39;7.60;;;4.20;;
17345;SDS011;8790;53.590;10.002;2023-10-13T00:54:17;10.97;;;5.27;;
17345;SDS011;8790;53.590;10.002;2023-10-13T00:56:50;11.27;;;4.77;;
17345;SDS011;8790;53.590;10.002;2023-10-13T00:59:29;12.67;;;4.50;;
17345;SDS011;8790;53.590;10.002;2023-10-13T01:02:01;9.47;;;5.30;;
17345;SDS011;8790;53.590;10.002;2023-10-13T01:04:53;9.57;;;5.03;;
17345;SDS011;8790;53.590;10.002;2023-10-13T01:07:24;15.17;;;6.10;;
17345;SDS011;8790;53.590;10.002;2023-10-13T01:09:55;14.80;;;5.57;;
17345;SDS011;8790;53.590;10.002;2023-10-13T01:12:27;13.53;;;5.80;;
17345;SDS011;8790;53.590;10.002;2023-10-13T01:14:59;12.13;;;5.27;;
17345;SDS011;8790;53.590;10.002;2023-10-13T01:17:38;13.43;;;5.47;;
17345;SDS011;8790;53.590;10.002;2023-10-13T01:20:09;11.47;;;5.43;;
17345;SDS011;8790;53.590;10.002;2023-10-13T01:22:43;10.83;;;5.50;;
17345;SDS011;8790;53.590;10.002;2023-10-13T01:25:14;13.03;;;6.10;;
17345;SDS011;8790;53.590;10.002;2023-10-13T01:27:49;13.03;;;5.97;;
17345;SDS011;8790;53.590;10.002;2023-10-13T01:30:21;11.40;;;5.97;;
17345;SDS011;8790;53.590;10.002;2023-10-13T01:32:56;11.73;;;6.50;;
17345;SDS011;8790;53.590;10.002;2023-10-13T01:35:30;15.03;;;6.67;;
17345;SDS011;8790;53.590;10.002;2023-10-13T01:38:06;13.27;;;5.87;;
17345;SDS011;8790;53.590;10.002;2023-10-13T01:40:39;13.83;;;6.70;;
17345;SDS011;8790;53.590;10.002;2023-10-13T01:43:10;17.00;;;6.50;;
17345;SDS011;8790;53.590;10.002;2023-10-13T01:45:41;16.37;;;7.50;;
17345;SDS011;8790;53.590;10.002;2023-10-13T01:48:19;13.70;;;7.10;;
17345;SDS011;8790;53.590;10.002;2023-10-13T01:50:55;18.90;;;8.10;;
17345;SDS011;8790;53.590;10.002;2023-10-13T01:53:29;14.77;;;7.80;;
17345;SDS011;8790;53.590;10.002;2023-10-13T01:56:02;13.67;;;7.47;;
17345;SDS011;8790;53.590;10.002;2023-10-13T01:58:36;14.40;;;7.27;;
17345;SDS011;8790;53.590;10.002;2023-10-13T02:01:11;14.97;;;7.90;;
17345;SDS011;8790;53.590;10.002;2023-10-13T02:03:44;13.23;;;7.20;;
17345;SDS011;8790;53.590;10.002;2023-10-13T02:06:17;15.50;;;7.87;;
17345;SDS011;8790;53.590;10.002;2023-10-13T02:08:53;13.60;;;7.43;;
17345;SDS011;8790;53.590;10.002;2023-10-13T02:11:29;14.53;;;7.33;;
17345;SDS011;8790;53.590;10.002;2023-10-13T02:14:00;16.40;;;7.77;;
17345;SDS011;8790;53.590;10.002;2023-10-13T02:16:31;17.27;;;7.77;;
17345;SDS011;8790;53.590;10.002;2023-10-13T02:19:03;13.40;;;6.70;;
17345;SDS011;8790;53.590;10.002;2023-10-13T02:21:34;17.07;;;8.33;;
17345;SDS011;8790;53.590;10.002;2023-10-13T02:24:09;14.67;;;7.73;;
17345;SDS011;8790;53.590;10.002;2023-10-13T02:26:45;15.70;;;7.47;;
17345;SDS011;8790;53.590;10.002;2023-10-13T02:29:16;19.97;;;7.87;;
17345;SDS011;8790;53.590;10.002;2023-10-13T02:31:47;14.10;;;7.60;;
17345;SDS011;8790;53.590;10.002;2023-10-13T02:34:24;16.83;;;8.30;;
17345;SDS011;8790;53.590;10.002;2023-10-13T02:36:55;19.57;;;9.30;;
17345;SDS011;8790;53.590;10.002;2023-10-13T02:39:26;19.10;;;9.37;;
17345;SDS011;8790;53.590;10.002;2023-10-13T02:41:59;18.43;;;9.53;;
17345;SDS011;8790;53.590;10.002;2023-10-13T02:44:31;21.07;;;8.90;;
17345;SDS011;8790;53.590;10.002;2023-10-13T02:47:01;21.70;;;9.27;;
17345;SDS011;8790;53.590;10.002;2023-10-13T02:49:35;16.83;;;8.43;;
17345;SDS011;8790;53.590;10.002;2023-10-13T02:52:07;18.73;;;8.30;;
17345;SDS011;8790;53.590;10.002;2023-10-13T02:54:40;18.37;;;8.67;;
17345;SDS011;8790;53.590;10.002;2023-10-13T02:57:18;15.50;;;8.30;;
17345;SDS011;8790;53.590;10.002;2023-10-13T02:59:49;17.53;;;8.23;;
17345;SDS011;8790;53.590;10.002;2023-10-13T03:02:26;17.37;;;8.27;;
17345;SDS011;8790;53.590;10.002;2023-10-13T03:04:58;18.67;;;8.73;;
17345;SDS011;8790;53.590;10.002;2023-10-13T03:07:30;19.13;;;9.30;;
17345;SDS011;8790;53.590;10.002;2023-10-13T03:10:02;21.07;;;8.57;;
17345;SDS011;8790;53.590;10.002;2023-10-13T03:12:41;16.37;;;8.53;;
17345;SDS011;8790;53.590;10.002;2023-10-13T03:15:12;19.77;;;8.93;;
17345;SDS011;8790;53.590;10.002;2023-10-13T03:17:47;17.30;;;9.23;;
17345;SDS011;8790;53.590;10.002;2023-10-13T03:20:18;17.97;;;8.80;;
17345;SDS011;8790;53.590;10.002;2023-10-13T03:23:01;18.67;;;8.97;;
17345;SDS011;8790;53.590;10.002;2023-10-13T03:25:40;17.83;;;9.40;;
17345;SDS011;8790;53.590;10.002;2023-10-13T03:28:15;19.97;;;9.90;;
17345;SDS011;8790;53.590;10.002;2023-10-13T03:30:47;18.43;;;9.90;;
17345;SDS011;8790;53.590;10.002;2023-10-13T03:33:22;20.13;;;10.53;;
17345;SDS011;8790;53.590;10.002;2023-10-13T03:35:56;19.00;;;9.60;;
17345;SDS011;8790;53.590;10.002;2023-10-13T03:38:35;21.10;;;11.10;;
17345;SDS011;8790;53.590;10.002;2023-10-13T03:41:09;19.10;;;10.30;;
17345;SDS011;8790;53.590;10.002;2023-10-13T03:43:51;18.87;;;10.10;;
17345;SDS011;8790;53.590;10.002;2023-10-13T03:46:37;19.07;;;9.87;;
17345;SDS011;8790;53.590;10.002;2023-10-13T03:49:11;16.20;;;9.53;;
17345;SDS011;8790;53.590;10.002;2023-10-13T03:51:44;16.20;;;8.83;;
17345;SDS011;8790;53.590;10.002;2023-10-13T03:54:18;15.60;;;8.87;;
17345;SDS011;8790;53.590;10.002;2023-10-13T03:56:49;14.37;;;8.27;;
17345;SDS011;8790;53.590;10.002;2023-10-13T03:59:23;13.60;;;8.13;;
17345;SDS011;8790;53.590;10.002;2023-10-13T04:02:05;12.00;;;7.90;;
17345;SDS011;8790;53.590;10.002;2023-10-13T04:04:42;13.03;;;7.83;;
17345;SDS011;8790;53.590;10.002;2023-10-13T04:07:18;14.30;;;8.10;;
17345;SDS011;8790;53.590;10.002;2023-10-13T04:10:07;13.10;;;7.40;;
17345;SDS011;8790;53.590;10.002;2023-10-13T04:13:10;12.90;;;8.00;;
17345;SDS011;8790;53.590;10.002;2023-10-13T04:15:57;13.17;;;8.03;;
17345;SDS011;8790;53.590;10.002;2023-10-13T04:19:04;12.30;;;8.43;;
17345;SDS011;8790;53.590;10.002;2023-10-13T04:21:50;14.53;;;8.40;;
17345;SDS011;8790;53.590;10.002;2023-10-13T04:24:44;13.57;;;7.60;;
17345;SDS011;8790;53.590;10.002;2023-10-13T04:27:30;14.80;;;8.50;;
17345;SDS011;8790;53.590;10.002;2023-10-13T04:30:18;12.90;;;8.03;;
17345;SDS011;8790;53.590;10.002;2023-10-13T04:32:58;12.83;;;8.40;;
17345;SDS011;8790;53.590;10.002;2023-10-13T04:36:05;13.50;;;8.20;;
17345;SDS011;8790;53.590;10.002;2023-10-13T04:38:44;13.27;;;8.33;;
17345;SDS011;8790;53.590;10.002;2023-10-13T04:41:27;15.30;;;8.80;;
17345;SDS011;8790;53.590;10.002;2023-10-13T04:44:02;14.20;;;8.77;;
17345;SDS011;8790;53.590;10.002;2023-10-13T04:46:53;14.17;;;8.60;;
17345;SDS011;8790;53.590;10.002;2023-10-13T04:49:39;13.13;;;8.10;;
17345;SDS011;8790;53.590;10.002;2023-10-13T04:52:22;16.53;;;9.40;;
17345;SDS011;8790;53.590;10.002;2023-10-13T04:55:10;16.50;;;9.70;;
17345;SDS011;8790;53.590;10.002;2023-10-13T04:58:02;14.43;;;8.97;;
17345;SDS011;8790;53.590;10.002;2023-10-13T05:00:44;17.97;;;9.50;;
17345;SDS011;8790;53.590;10.002;2023-10-13T05:03:42;18.07;;;9.67;;
17345;SDS011;8790;53.590;10.002;2023-10-13T05:06:47;16.33;;;10.13;;
17345;SDS011;8790;53.590;10.002;2023-10-13T05:09:50;18.27;;;10.03;;
17345;SDS011;8790;53.590;10.002;2023-10-13T05:12:42;18.80;;;10.60;;
17345;SDS011;8790;53.590;10.002;2023-10-13T05:15:31;22.07;;;11.23;;
17345;SDS011;8790;53.590;10.002;2023-10-13T05:18:20;25.77;;;13.03;;
17345;SDS011;8790;53.590;10.002;2023-10-13T05:21:09;20.47;;;12.30;;
17345;SDS011;8790;53.590;10.002;2023-10-13T05:23:59;24.70;;;12.87;;
17345;SDS011;8790;53.590;10.002;2023-10-13T05:26:48;22.57;;;12.63;;
17345;SDS011;8790;53.590;10.002;2023-10-13T05:29:38;24.33;;;13.30;;
17345;SDS011;8790;53.590;10.002;2023-10-13T05:32:27;26.80;;;14.40;;
17345;SDS011;8790;53.590;10.002;2023-10-13T05:35:17;27.07;;;15.03;;
17345;SDS011;8790;53.590;10.002;2023-10-13T05:38:07;29.43;;;16.23;;
17345;SDS011;8790;53.590;10.002;2023-10-13T05:40:58;32.97;;;17.37;;
17345;SDS011;8790;53.590;10.002;2023-10-13T05:43:48;36.80;;;18.53;;
17345;SDS011;8790;53.590;10.002;2023-10-13T05:46:37;36.50;;;18.00;;
17345;SDS011;8790;53.590;10.002;2023-10-13T05:49:31;38.00;;;19.13;;
17345;SDS011;8790;53.590;10.002;2023-10-13T05:52:20;36.40;;;19.20;;
17345;SDS011;8790;53.590;10.002;2023-10-13T05:55:06;36.13;;;19.53;;
17345;SDS011;8790;53.590;10.002;2023-10-13T05:57:56;39.07;;;19.67;;
17345;SDS011;8790;53.590;10.002;2023-10-13T06:00:45;39.77;;;19.23;;
17345;SDS011;8790;53.590;10.002;2023-10-13T06:03:34;37.53;;;19.70;;
17345;SDS011;8790;53.590;10.002;2023-10-13T06:06:23;37.67;;;20.07;;
17345;SDS011;8790;53.590;10.002;2023-10-13T06:09:12;38.27;;;20.17;;
17345;SDS011;8790;53.590;10.002;2023-10-13T06:12:01;39.73;;;19.67;;
17345;SDS011;8790;53.590;10.002;2023-10-13T06:15:03;38.57;;;20.03;;
17345;SDS011;8790;53.590;10.002;2023-10-13T06:17:52;38.80;;;20.63;;
17345;SDS011;8790;53.590;10.002;2023-10-13T06:20:41;32.80;;;18.87;;
17345;SDS011;8790;53.590;10.002;2023-10-13T06:23:30;39.80;;;21.03;;
17345;SDS011;8790;53.590;10.002;2023-10-13T06:26:19;36.63;;;20.37;;
17345;SDS011;8790;53.590;10.002;2023-10-13T06:29:07;36.33;;;20.40;;
17345;SDS011;8790;53.590;10.002;2023-10-13T06:31:41;37.63;;;21.00;;
17345;SDS011;8790;53.590;10.002;2023-10-13T06:34:16;35.07;;;21.07;;
17345;SDS011;8790;53.590;10.002;2023-10-13T06:36:50;35.53;;;20.23;;
17345;SDS011;8790;53.590;10.002;2023-10-13T06:39:24;33.77;;;18.67;;
17345;SDS011;8790;53.590;10.002;2023-10-13T06:42:12;34.57;;;19.57;;
17345;SDS011;8790;53.590;10.002;2023-10-13T06:44:45;31.37;;;18.57;;
17345;SDS011;8790;53.590;10.002;2023-10-13T06:47:18;35.47;;;19.67;;
17345;SDS011;8790;53.590;10.002;2023-10-13T06:49:50;33.13;;;18.30;;
17345;SDS011;8790;53.590;10.002;2023-10-13T06:52:24;33.23;;;19.13;;
17345;SDS011;8790;53.590;10.002;2023-10-13T06:54:59;32.23;;;18.93;;
17345;SDS011;8790;53.590;10.002;2023-10-13T06:57:35;30.63;;;19.13;;
17345;SDS011;8790;53.590;10.002;2023-10-13T07:00:07;31.87;;;19.47;;
17345;SDS011;8790;53.590;10.002;2023-10-13T07:02:44;32.87;;;19.20;;
17345;SDS011;8790;53.590;10.002;2023-10-13T07:05:16;35.20;;;19.37;;
17345;SDS011;8790;53.590;10.002;2023-10-13T07:07:49;35.60;;;19.53;;
17345;SDS011;8790;53.590;10.002;2023-10-13T07:10:26;33.13;;;19.10;;
17345;SDS011;8790;53.590;10.002;2023-10-13T07:13:00;33.13;;;19.97;;
17345;SDS011;8790;53.590;10.002;2023-10-13T07:15:34;30.00;;;19.40;;
17345;SDS011;8790;53.590;10.002;2023-10-13T07:18:16;29.57;;;18.70;;
17345;SDS011;8790;53.590;10.002;2023-10-13T07:20:53;31.93;;;19.47;;
17345;SDS011;8790;53.590;10.002;2023-10-13T07:23:27;29.30;;;18.67;;
17345;SDS011;8790;53.590;10.002;2023-10-13T07:26:00;28.80;;;18.93;;
17345;SDS011;8790;53.590;10.002;2023-10-13T07:28:33;33.27;;;19.67;;
17345;SDS011;8790;53.590;10.002;2023-10-13T07:31:13;29.03;;;18.60;;
17345;SDS011;8790;53.590;10.002;2023-10-13T07:33:47;29.70;;;19.47;;
17345;SDS011;8790;53.590;10.002;2023-10-13T07:36:18;31.53;;;19.23;;
17345;SDS011;8790;53.590;10.002;2023-10-13T07:38:58;29.77;;;18.73;;
17345;SDS011;8790;53.590;10.002;2023-10-13T07:41:50;33.83;;;19.13;;
17345;SDS011;8790;53.590;10.002;2023-10-13T07:44:24;28.43;;;18.67;;
17345;SDS011;8790;53.590;10.002;2023-10-13T07:46:59;30.13;;;18.20;;
17345;SDS011;8790;53.590;10.002;2023-10-13T07:49:34;27.40;;;16.93;;
17345;SDS011;8790;53.590;10.002;2023-10-13T07:52:08;24.47;;;16.40;;
17345;SDS011;8790;53.590;10.002;2023-10-13T07:54:49;26.40;;;17.47;;
17345;SDS011;8790;53.590;10.002;2023-10-13T07:57:29;24.50;;;16.93;;
17345;SDS011;8790;53.590;10.002;2023-10-13T08:00:01;25.90;;;16.80;;
17345;SDS011;8790;53.590;10.002;2023-10-13T08:02:41;26.77;;;16.97;;
17345;SDS011;8790;53.590;10.002;2023-10-13T08:05:21;26.20;;;15.93;;
17345;SDS011;8790;53.590;10.002;2023-10-13T08:08:09;24.63;;;15.60;;
17345;SDS011;8790;53.590;10.002;2023-10-13T08:10:44;22.37;;;15.10;;
17345;SDS011;8790;53.590;10.002;2023-10-13T08:13:16;21.03;;;14.30;;
17345;SDS011;8790;53.590;10.002;2023-10-13T08:15:51;16.80;;;12.73;;
17345;SDS011;8790;53.590;10.002;2023-10-13T08:18:23;21.33;;;13.43;;
17345;SDS011;8790;53.590;10.002;2023-10-13T08:21:02;16.67;;;12.10;;
17345;SDS011;8790;53.590;10.002;2023-10-13T08:23:34;21.23;;;13.20;;
17345;SDS011;8790;53.590;10.002;2023-10-13T08:26:27;16.47;;;11.67;;
17345;SDS011;8790;53.590;10.002;2023-10-13T08:29:16;17.27;;;12.17;;
17345;SDS011;8790;53.590;10.002;2023-10-13T08:32:05;17.50;;;12.23;;
17345;SDS011;8790;53.590;10.002;2023-10-13T08:34:50;17.30;;;11.97;;
17345;SDS011;8790;53.590;10.002;2023-10-13T08:37:40;17.00;;;11.77;;
17345;SDS011;8790;53.590;10.002;2023-10-13T08:40:26;15.63;;;11.63;;
17345;SDS011;8790;53.590;10.002;2023-10-13T08:43:27;15.87;;;10.97;;
17345;SDS011;8790;53.590;10.002;2023-10-13T08:46:10;15.37;;;11.07;;
17345;SDS011;8790;53.590;10.002;2023-10-13T08:48:55;15.90;;;11.53;;
17345;SDS011;8790;53.590;10.002;2023-10-13T08:51:36;15.13;;;11.00;;
17345;SDS011;8790;53.590;10.002;2023-10-13T08:54:17;13.67;;;10.20;;
17345;SDS011;8790;53.590;10.002;2023-10-13T08:57:03;15.53;;;10.63;;
17345;SDS011;8790;53.590;10.002;2023-10-13T08:59:49;15.77;;;9.77;;
17345;SDS011;8790;53.590;10.002;2023-10-13T09:02:23;11.53;;;8.60;;
17345;SDS011;8790;53.590;10.002;2023-10-13T09:05:09;15.23;;;9.03;;
17345;SDS011;8790;53.590;10.002;2023-10-13T09:08:00;10.50;;;8.40;;
17345;SDS011;8790;53.590;10.002;2023-10-13T09:10:40;10.73;;;7.97;;
17345;SDS011;8790;53.590;10.002;2023-10-13T09:13:35;9.23;;;7.63;;
17345;SDS011;8790;53.590;10.002;2023-10-13T09:16:14;8.77;;;7.40;;
17345;SDS011;8790;53.590;10.002;2023-10-13T09:18:52;9.13;;;7.00;;
17345;SDS011;8790;53.590;10.002;2023-10-13T09:21:37;9.40;;;7.23;;
17345;SDS011;8790;53.590;10.002;2023-10-13T09:24:17;8.07;;;6.73;;
17345;SDS011;8790;53.590;10.002;2023-10-13T09:26:53;10.33;;;7.20;;
17345;SDS011;8790;53.590;10.002;2023-10-13T09:29:26;8.90;;;6.90;;
17345;SDS011;8790;53.590;10.002;2023-10-13T09:32:00;9.83;;;7.07;;
17345;SDS011;8790;53.590;10.002;2023-10-13T09:34:33;9.93;;;7.27;;
17345;SDS011;8790;53.590;10.002;2023-10-13T09:37:10;11.43;;;7.23;;
17345;SDS011;8790;53.590;10.002;2023-10-13T09:39:47;10.30;;;6.90;;
17345;SDS011;8790;53.590;10.002;2023-10-13T09:42:24;11.70;;;7.60;;
17345;SDS011;8790;53.590;10.002;2023-10-13T09:44:56;8.90;;;6.93;;
17345;SDS011;8790;53.590;10.002;2023-10-13T09:47:34;10.80;;;7.30;;
17345;SDS011;8790;53.590;10.002;2023-10-13T09:50:07;11.33;;;6.97;;
17345;SDS011;8790;53.590;10.002;2023-10-13T09:52:45;9.83;;;6.97;;
17345;SDS011;8790;53.590;10.002;2023-10-13T09:55:17;12.07;;;6.83;;
17345;SDS011;8790;53.590;10.002;2023-10-13T09:57:56;9.33;;;6.67;;
17345;SDS011;8790;53.590;10.002;2023-10-13T10:00:43;10.77;;;6.43;;
17345;SDS011;8790;53.590;10.002;2023-10-13T10:03:26;9.63;;;6.40;;
17345;SDS011;8790;53.590;10.002;2023-10-13T10:06:00;9.83;;;6.00;;
17345;SDS011;8790;53.590;10.002;2023-10-13T10:08:36;10.50;;;6.53;;
17345;SDS011;8790;53.590;10.002;2023-10-13T10:11:21;11.17;;;6.73;;
17345;SDS011;8790;53.590;10.002;2023-10-13T10:14:02;8.23;;;6.03;;
17345;SDS011;8790;53.590;10.002;2023-10-13T10:16:43;10.70;;;5.63;;
17345;SDS011;8790;53.590;10.002;2023-10-13T10:19:20;12.67;;;6.03;;
17345;SDS011;8790;53.590;10.002;2023-10-13T10:22:00;11.47;;;6.27;;
17345;SDS011;8790;53.590;10.002;2023-10-13T10:24:35;9.30;;;5.87;;
17345;SDS011;8790;53.590;10.002;2023-10-13T10:27:08;7.83;;;5.30;;
17345;SDS011;8790;53.590;10.002;2023-10-13T10:29:53;10.77;;;5.57;;
17345;SDS011;8790;53.590;10.002;2023-10-13T10:32:31;10.23;;;5.90;;
17345;SDS011;8790;53.590;10.002;2023-10-13T10:35:05;9.87;;;6.53;;
17345;SDS011;8790;53.590;10.002;2023-10-13T10:37:44;8.43;;;5.53;;
17345;SDS011;8790;53.590;10.002;2023-10-13T10:40:19;8.27;;;6.13;;
17345;SDS011;8790;53.590;10.002;2023-10-13T10:43:16;9.50;;;6.17;;
17345;SDS011;8790;53.590;10.002;2023-10-13T10:45:49;8.33;;;6.10;;
17345;SDS011;8790;53.590;10.002;2023-10-13T10:48:21;10.50;;;6.07;;
17345;SDS011;8790;53.590;10.002;2023-10-13T10:51:01;9.87;;;6.23;;
17345;SDS011;8790;53.590;10.002;2023-10-13T10:53:44;10.40;;;5.77;;
17345;SDS011;8790;53.590;10.002;2023-10-13T10:56:15;8.60;;;6.07;;
17345;SDS011;8790;53.590;10.002;2023-10-13T10:58:54;7.60;;;5.60;;
17345;SDS011;8790;53.590;10.002;2023-10-13T11:01:28;12.03;;;6.33;;
17345;SDS011;8790;53.590;10.002;2023-10-13T11:04:08;9.67;;;5.97;;
17345;SDS011;8790;53.590;10.002;2023-10-13T11:06:45;11.60;;;5.90;;
17345;SDS011;8790;53.590;10.002;2023-10-13T11:09:23;8.90;;;6.20;;
17345;SDS011;8790;53.590;10.002;2023-10-13T11:12:11;8.43;;;5.90;;
17345;SDS011;8790;53.590;10.002;2023-10-13T11:14:46;7.57;;;5.97;;
17345;SDS011;8790;53.590;10.002;2023-10-13T11:17:21;11.47;;;6.63;;
17345;SDS011;8790;53.590;10.002;2023-10-13T11:20:07;9.83;;;6.80;;
17345;SDS011;8790;53.590;10.002;2023-10-13T11:22:46;12.37;;;7.43;;
17345;SDS011;8790;53.590;10.002;2023-10-13T11:25:22;11.40;;;7.60;;
17345;SDS011;8790;53.590;10.002;2023-10-13T11:28:08;14.17;;;7.40;;
17345;SDS011;8790;53.590;10.002;2023-10-13T11:30:47;10.53;;;7.43;;
17345;SDS011;8790;53.590;10.002;2023-10-13T11:33:22;14.20;;;7.70;;
17345;SDS011;8790;53.590;10.002;2023-10-13T11:35:54;9.80;;;7.63;;
17345;SDS011;8790;53.590;10.002;2023-10-13T11:38:33;14.13;;;7.53;;
17345;SDS011;8790;53.590;10.002;2023-10-13T11:41:13;10.87;;;7.63;;
17345;SDS011;8790;53.590;10.002;2023-10-13T11:43:46;9.90;;;7.53;;
17345;SDS011;8790;53.590;10.002;2023-10-13T11:46:42;10.17;;;7.17;;
17345;SDS011;8790;53.590;10.002;2023-10-13T11:49:33;11.63;;;6.80;;
17345;SDS011;8790;53.590;10.002;2023-10-13T11:52:07;9.63;;;6.93;;
17345;SDS011;8790;53.590;10.002;2023-10-13T11:54:47;7.73;;;6.47;;
17345;SDS011;8790;53.590;10.002;2023-10-13T11:57:18;17.73;;;10.83;;
17345;SDS011;8790;53.590;10.002;2023-10-13T11:59:51;12.90;;;6.20;;
17345;SDS011;8790;53.590;10.002;2023-10-13T12:02:49;9.13;;;6.30;;
17345;SDS011;8790;53.590;10.002;2023-10-13T12:05:39;8.13;;;5.40;;
17345;SDS011;8790;53.590;10.002;2023-10-13T12:08:40;9.67;;;5.97;;
17345;SDS011;8790;53.590;10.002;2023-10-13T12:11:19;12.23;;;5.73;;
17345;SDS011;8790;53.590;10.002;2023-10-13T12:14:02;7.33;;;5.40;;
17345;SDS011;8790;53.590;10.002;2023-10-13T12:16:42;10.17;;;6.00;;
17345;SDS011;8790;53.590;10.002;2023-10-13T12:19:19;12.13;;;6.10;;
17345;SDS011;8790;53.590;10.002;2023-10-13T12:21:55;9.98;;;5.60;;
17345;SDS011;8790;53.590;10.002;2023-10-13T12:24:27;9.10;;;5.90;;
17345;SDS011;8790;53.590;10.002;2023-10-13T12:27:10;9.90;;;6.10;;
17345;SDS011;8790;53.590;10.002;2023-10-13T12:29:51;11.57;;;6.03;;
17345;SDS011;8790;53.590;10.002;2023-10-13T12:32:22;10.83;;;5.80;;
17345;SDS011;8790;53.590;10.002;2023-10-13T12:34:55;8.47;;;4.90;;
17345;SDS011;8790;53.590;10.002;2023-10-13T12:37:48;7.90;;;5.32;;
17345;SDS011;8790;53.590;10.002;2023-10-13T12:40:22;11.23;;;6.60;;
17345;SDS011;8790;53.590;10.002;2023-10-13T12:43:12;8.98;;;4.50;;
17345;SDS011;8790;53.590;10.002;2023-10-13T12:46:01;7.37;;;4.60;;
17345;SDS011;8790;53.590;10.002;2023-10-13T12:48:50;10.32;;;4.93;;
17345;SDS011;8790;53.590;10.002;2023-10-13T12:51:34;10.73;;;4.57;;
17345;SDS011;8790;53.590;10.002;2023-10-13T12:54:23;9.70;;;4.63;;
17345;SDS011;8790;53.590;10.002;2023-10-13T12:57:05;7.78;;;4.47;;
17345;SDS011;8790;53.590;10.002;2023-10-13T12:59:39;8.27;;;5.03;;
17345;SDS011;8790;53.590;10.002;2023-10-13T13:02:10;8.65;;;4.95;;
17345;SDS011;8790;53.590;10.002;2023-10-13T13:04:44;10.23;;;4.97;;
17345;SDS011;8790;53.590;10.002;2023-10-13T13:07:18;9.70;;;5.28;;
17345;SDS011;8790;53.590;10.002;2023-10-13T13:09:51;9.85;;;5.00;;
17345;SDS011;8790;53.590;10.002;2023-10-13T13:12:26;8.70;;;5.00;;
17345;SDS011;8790;53.590;10.002;2023-10-13T13:14:58;8.70;;;5.15;;
17345;SDS011;8790;53.590;10.002;2023-10-13T13:17:30;10.48;;;4.70;;
17345;SDS011;8790;53.590;10.002;2023-10-13T13:20:02;9.98;;;4.95;;
17345;SDS011;8790;53.590;10.002;2023-10-13T13:22:41;9.90;;;5.00;;
17345;SDS011;8790;53.590;10.002;2023-10-13T13:25:13;14.68;;;6.05;;
17345;SDS011;8790;53.590;10.002;2023-10-13T13:27:48;10.52;;;5.50;;
17345;SDS011;8790;53.590;10.002;2023-10-13T13:30:19;10.13;;;5.60;;
17345;SDS011;8790;53.590;10.002;2023-10-13T13:32:51;11.02;;;5.28;;
17345;SDS011;8790;53.590;10.002;2023-10-13T13:35:24;10.80;;;5.45;;
17345;SDS011;8790;53.590;10.002;2023-10-13T13:38:03;11.68;;;5.38;;
17345;SDS011;8790;53.590;10.002;2023-10-13T13:40:41;12.13;;;5.35;;
17345;SDS011;8790;53.590;10.002;2023-10-13T13:43:18;7.78;;;4.85;;
17345;SDS011;8790;53.590;10.002;2023-10-13T13:46:07;7.35;;;4.60;;
17345;SDS011;8790;53.590;10.002;2023-10-13T13:48:41;8.70;;;5.20;;
17345;SDS011;8790;53.590;10.002;2023-10-13T13:51:13;10.55;;;5.32;;
17345;SDS011;8790;53.590;10.002;2023-10-13T13:53:45;9.43;;;4.55;;
17345;SDS011;8790;53.590;10.002;2023-10-13T13:56:19;8.52;;;4.90;;
17345;SDS011;8790;53.590;10.002;2023-10-13T13:58:51;14.80;;;5.82;;
17345;SDS011;8790;53.590;10.002;2023-10-13T14:01:23;9.35;;;4.97;;
17345;SDS011;8790;53.590;10.002;2023-10-13T14:03:56;9.85;;;4.70;;
17345;SDS011;8790;53.590;10.002;2023-10-13T14:06:32;13.77;;;5.35;;
17345;SDS011;8790;53.590;10.002;2023-10-13T14:09:07;8.65;;;5.38;;
17345;SDS011;8790;53.590;10.002;2023-10-13T14:11:47;12.13;;;4.90;;
17345;SDS011;8790;53.590;10.002;2023-10-13T14:14:41;9.05;;;5.45;;
17345;SDS011;8790;53.590;10.002;2023-10-13T14:17:19;12.80;;;5.18;;
17345;SDS011;8790;53.590;10.002;2023-10-13T14:19:50;8.93;;;5.15;;
17345;SDS011;8790;53.590;10.002;2023-10-13T14:22:21;12.07;;;4.95;;
17345;SDS011;8790;53.590;10.002;2023-10-13T14:24:55;8.88;;;5.10;;
17345;SDS011;8790;53.590;10.002;2023-10-13T14:27:28;8.27;;;4.82;;
17345;SDS011;8790;53.590;10.002;2023-10-13T14:30:00;13.88;;;5.13;;
17345;SDS011;8790;53.590;10.002;2023-10-13T14:32:32;9.73;;;4.85;;
17345;SDS011;8790;53.590;10.002;2023-10-13T14:35:10;13.00;;;5.38;;
17345;SDS011;8790;53.590;10.002;2023-10-13T14:37:44;13.07;;;5.45;;
17345;SDS011;8790;53.590;10.002;2023-10-13T14:40:16;11.23;;;5.28;;
17345;SDS011;8790;53.590;10.002;2023-10-13T14:42:52;10.15;;;5.90;;
17345;SDS011;8790;53.590;10.002;2023-10-13T14:45:26;12.50;;;5.60;;
17345;SDS011;8790;53.590;10.002;2023-10-13T14:47:58;9.93;;;5.40;;
17345;SDS011;8790;53.590;10.002;2023-10-13T14:50:29;13.23;;;6.18;;
17345;SDS011;8790;53.590;10.002;2023-10-13T14:53:01;10.35;;;5.60;;
17345;SDS011;8790;53.590;10.002;2023-10-13T14:55:32;9.48;;;5.78;;
17345;SDS011;8790;53.590;10.002;2023-10-13T14:58:10;13.02;;;5.38;;
17345;SDS011;8790;53.590;10.002;2023-10-13T15:00:46;12.40;;;5.35;;
17345;SDS011;8790;53.590;10.002;2023-10-13T15:03:17;8.23;;;5.70;;
17345;SDS011;8790;53.590;10.002;2023-10-13T15:05:49;12.60;;;6.28;;
17345;SDS011;8790;53.590;10.002;2023-10-13T15:08:20;12.82;;;5.90;;
17345;SDS011;8790;53.590;10.002;2023-10-13T15:10:51;9.52;;;5.78;;
17345;SDS011;8790;53.590;10.002;2023-10-13T15:13:24;11.93;;;5.65;;
17345;SDS011;8790;53.590;10.002;2023-10-13T15:15:55;11.10;;;5.70;;
17345;SDS011;8790;53.590;10.002;2023-10-13T15:18:27;9.50;;;5.70;;
17345;SDS011;8790;53.590;10.002;2023-10-13T15:20:59;9.98;;;5.97;;
17345;SDS011;8790;53.590;10.002;2023-10-13T15:23:30;11.68;;;5.90;;
17345;SDS011;8790;53.590;10.002;2023-10-13T15:26:03;10.20;;;5.93;;
17345;SDS011;8790;53.590;10.002;2023-10-13T15:28:40;16.00;;;5.85;;
17345;SDS011;8790;53.590;10.002;2023-10-13T15:31:18;14.15;;;5.95;;
17345;SDS011;8790;53.590;10.002;2023-10-13T15:34:11;11.35;;;5.93;;
17345;SDS011;8790;53.590;10.002;2023-10-13T15:36:43;10.57;;;5.97;;
17345;SDS011;8790;53.590;10.002;2023-10-13T15:39:15;12.68;;;6.03;;
17345;SDS011;8790;53.590;10.002;2023-10-13T15:41:53;13.07;;;6.05;;
17345;SDS011;8790;53.590;10.002;2023-10-13T15:44:29;8.98;;;5.45;;